sensor_id;sensor_type;location;lat;lon;timestamp;pressure;altitude;pressure_sealevel;temperature;humidity
49055;BME280;35405;52.344;14.530;2023-12-14T00:00:32;99913.22;;;5.62;87.42
49055;BME280;35405;52.344;14.530;2023-12-14T00:02:57;99914.09;;;5.62;88.21
49055;BME280;35405;52.344;14.530;2023-12-14T00:05:23;99921.72;;;5.76;87.35
49055;BME280;35405;52.344;14.530;2023-12-14T00:07:48;99922.56;;;5.76;87.52
49055;BME280;35405;52.344;14.530;2023-12-14T00:10:13;99921.69;;;5.77;87.73
49055;BME280;35405;52.344;14.530;2023-12-14T00:12:39;99920.84;;;5.77;87.12
49055;BME280;35405;52.344;14.530;2023-12-14T00:15:04;99926.88;;;5.81;87.13
49055;BME280;35405;52.344;14.530;2023-12-14T00:17:30;99924.22;;;5.84;86.93
49055;BME280;35405;52.344;14.530;2023-12-14T00:19:55;99926.81;;;5.85;87.20
49055;BME280;35405;52.344;14.530;2023-12-14T00:22:20;99928.59;;;5.80;87.07
49055;BME280;35405;52.344;14.530;2023-12-14T00:24:45;99936.41;;;5.77;87.36
49055;BME280;35405;52.344;14.530;2023-12-14T00:27:11;99938.22;;;5.70;87.50
49055;BME280;35405;52.344;14.530;2023-12-14T00:29:36;99940.81;;;5.72;87.03
49055;BME280;35405;52.344;14.530;2023-12-14T00:32:01;99943.41;;;5.72;86.84
49055;BME280;35405;52.344;14.530;2023-12-14T00:34:27;99949.56;;;5.62;87.18
49055;BME280;35405;52.344;14.530;2023-12-14T00:36:52;99956.38;;;5.72;87.48
49055;BME280;35405;52.344;14.530;2023-12-14T00:39:18;99948.56;;;5.73;87.23
49055;BME280;35405;52.344;14.530;2023-12-14T00:41:43;99943.41;;;5.72;86.88
49055;BME280;35405;52.344;14.530;2023-12-14T00:44:08;99951.41;;;5.52;86.91
49055;BME280;35405;52.344;14.530;2023-12-14T00:46:33;99953.16;;;5.48;87.24
49055;BME280;35405;52.344;14.530;2023-12-14T00:48:59;99958.25;;;5.58;87.52
49055;BME280;35405;52.344;14.530;2023-12-14T00:51:24;99960.75;;;5.67;87.80
49055;BME280;35405;52.344;14.530;2023-12-14T00:53:49;99969.22;;;5.86;87.59
49055;BME280;35405;52.344;14.530;2023-12-14T00:56:14;99969.09;;;5.96;86.83
49055;BME280;35405;52.344;14.530;2023-12-14T00:58:39;99967.41;;;5.95;86.87
49055;BME280;35405;52.344;14.530;2023-12-14T01:01:05;99969.13;;;5.90;86.79
49055;BME280;35405;52.344;14.530;2023-12-14T01:03:30;99976.19;;;5.77;86.55
49055;BME280;35405;52.344;14.530;2023-12-14T01:05:55;99976.25;;;5.73;86.75
49055;BME280;35405;52.344;14.530;2023-12-14T01:08:21;99989.19;;;5.79;87.07
49055;BME280;35405;52.344;14.530;2023-12-14T01:10:46;99985.00;;;5.64;86.33
49055;BME280;35405;52.344;14.530;2023-12-14T01:13:11;99996.25;;;5.62;87.15
49055;BME280;35405;52.344;14.530;2023-12-14T01:15:36;99998.00;;;5.64;87.05
49055;BME280;35405;52.344;14.530;2023-12-14T01:18:01;100002.94;;;5.87;86.82
49055;BME280;35405;52.344;14.530;2023-12-14T01:20:27;99998.72;;;5.78;86.52
49055;BME280;35405;52.344;14.530;2023-12-14T01:22:52;100012.66;;;5.64;85.97
49055;BME280;35405;52.344;14.530;2023-12-14T01:25:17;100016.19;;;5.60;87.08
49055;BME280;35405;52.344;14.530;2023-12-14T01:27:42;100016.16;;;5.64;87.42
49055;BME280;35405;52.344;14.530;2023-12-14T01:30:08;100016.91;;;5.74;87.11
49055;BME280;35405;52.344;14.530;2023-12-14T01:32:33;100018.75;;;5.64;86.94
49055;BME280;35405;52.344;14.530;2023-12-14T01:34:58;100023.91;;;5.66;87.13
49055;BME280;35405;52.344;14.530;2023-12-14T01:37:24;100015.28;;;5.62;86.63
49055;BME280;35405;52.344;14.530;2023-12-14T01:39:49;100023.97;;;5.57;86.31
49055;BME280;35405;52.344;14.530;2023-12-14T01:42:14;100023.19;;;5.48;86.84
49055;BME280;35405;52.344;14.530;2023-12-14T01:44:39;100025.72;;;5.58;86.91
49055;BME280;35405;52.344;14.530;2023-12-14T01:47:04;100023.97;;;5.60;87.31
49055;BME280;35405;52.344;14.530;2023-12-14T01:49:30;100033.63;;;5.44;86.31
49055;BME280;35405;52.344;14.530;2023-12-14T01:51:55;100038.97;;;5.24;86.44
49055;BME280;35405;52.344;14.530;2023-12-14T01:54:20;100044.97;;;5.28;87.49
49055;BME280;35405;52.344;14.530;2023-12-14T01:56:45;100040.66;;;5.31;87.49
49055;BME280;35405;52.344;14.530;2023-12-14T01:59:11;100036.28;;;5.38;87.73
49055;BME280;35405;52.344;14.530;2023-12-14T02:01:43;100039.59;;;5.52;86.87
49055;BME280;35405;52.344;14.530;2023-12-14T02:04:09;100037.91;;;5.48;86.53
49055;BME280;35405;52.344;14.530;2023-12-14T02:06:35;100050.00;;;5.47;87.45
49055;BME280;35405;52.344;14.530;2023-12-14T02:09:00;100051.81;;;5.39;86.84
49055;BME280;35405;52.344;14.530;2023-12-14T02:11:25;100063.09;;;5.32;87.06
49055;BME280;35405;52.344;14.530;2023-12-14T02:13:51;100058.69;;;5.46;87.53
49055;BME280;35405;52.344;14.530;2023-12-14T02:16:16;100064.75;;;5.42;87.36
49055;BME280;35405;52.344;14.530;2023-12-14T02:18:41;100066.53;;;5.37;87.48
49055;BME280;35405;52.344;14.530;2023-12-14T02:21:06;100068.28;;;5.32;87.46
49055;BME280;35405;52.344;14.530;2023-12-14T02:23:32;100073.47;;;5.32;87.56
49055;BME280;35405;52.344;14.530;2023-12-14T02:25:58;100075.22;;;5.32;87.68
49055;BME280;35405;52.344;14.530;2023-12-14T02:28:23;100076.13;;;5.26;87.09
49055;BME280;35405;52.344;14.530;2023-12-14T02:30:48;100077.97;;;5.10;87.46
49055;BME280;35405;52.344;14.530;2023-12-14T02:33:14;100078.81;;;5.12;87.78
49055;BME280;35405;52.344;14.530;2023-12-14T02:35:39;100073.63;;;5.12;87.79
49055;BME280;35405;52.344;14.530;2023-12-14T02:38:05;100075.34;;;5.16;87.67
49055;BME280;35405;52.344;14.530;2023-12-14T02:40:30;100081.38;;;5.14;87.51
49055;BME280;35405;52.344;14.530;2023-12-14T02:42:55;100083.97;;;5.17;87.52
49055;BME280;35405;52.344;14.530;2023-12-14T02:45:20;100086.53;;;5.20;87.98
49055;BME280;35405;52.344;14.530;2023-12-14T02:47:46;100083.97;;;5.15;87.93
49055;BME280;35405;52.344;14.530;2023-12-14T02:50:12;100084.88;;;5.10;87.78
49055;BME280;35405;52.344;14.530;2023-12-14T02:52:38;100088.31;;;5.15;87.58
49055;BME280;35405;52.344;14.530;2023-12-14T02:55:03;100083.16;;;5.10;88.16
49055;BME280;35405;52.344;14.530;2023-12-14T02:57:28;100091.78;;;5.06;87.42
49055;BME280;35405;52.344;14.530;2023-12-14T02:59:53;100095.28;;;5.02;87.91
49055;BME280;35405;52.344;14.530;2023-12-14T03:02:19;100089.25;;;4.99;87.32
49055;BME280;35405;52.344;14.530;2023-12-14T03:04:44;100104.84;;;4.92;88.35
49055;BME280;35405;52.344;14.530;2023-12-14T03:07:09;100108.31;;;4.85;87.46
49055;BME280;35405;52.344;14.530;2023-12-14T03:09:34;100104.88;;;4.83;88.03
49055;BME280;35405;52.344;14.530;2023-12-14T03:12:00;100106.56;;;4.92;88.46
49055;BME280;35405;52.344;14.530;2023-12-14T03:14:31;100107.41;;;4.97;87.91
49055;BME280;35405;52.344;14.530;2023-12-14T03:16:56;100116.09;;;4.90;88.10
49055;BME280;35405;52.344;14.530;2023-12-14T03:19:21;100122.97;;;4.95;88.26
49055;BME280;35405;52.344;14.530;2023-12-14T03:21:47;100123.84;;;4.93;87.97
49055;BME280;35405;52.344;14.530;2023-12-14T03:24:12;100120.38;;;4.92;87.72
49055;BME280;35405;52.344;14.530;2023-12-14T03:26:37;100122.16;;;4.87;87.23
49055;BME280;35405;52.344;14.530;2023-12-14T03:29:02;100126.47;;;4.85;87.45
49055;BME280;35405;52.344;14.530;2023-12-14T03:31:28;100121.31;;;4.84;87.83
49055;BME280;35405;52.344;14.530;2023-12-14T03:33:53;100125.66;;;4.77;87.99
49055;BME280;35405;52.344;14.530;2023-12-14T03:36:18;100130.88;;;4.68;87.82
49055;BME280;35405;52.344;14.530;2023-12-14T03:38:43;100135.22;;;4.66;88.08
49055;BME280;35405;52.344;14.530;2023-12-14T03:41:09;100145.56;;;4.61;88.50
49055;BME280;35405;52.344;14.530;2023-12-14T03:43:34;100139.50;;;4.68;88.50
49055;BME280;35405;52.344;14.530;2023-12-14T03:45:59;100139.47;;;4.76;88.76
49055;BME280;35405;52.344;14.530;2023-12-14T03:48:24;100147.25;;;4.76;88.46
49055;BME280;35405;52.344;14.530;2023-12-14T03:50:50;100146.34;;;4.83;87.97
49055;BME280;35405;52.344;14.530;2023-12-14T03:53:15;100150.69;;;4.78;87.93
49055;BME280;35405;52.344;14.530;2023-12-14T03:55:40;100153.28;;;4.81;88.55
49055;BME280;35405;52.344;14.530;2023-12-14T03:58:05;100168.91;;;4.66;88.02
49055;BME280;35405;52.344;14.530;2023-12-14T04:00:31;100171.47;;;4.66;88.03
49055;BME280;35405;52.344;14.530;2023-12-14T04:02:56;100179.22;;;4.69;88.75
49055;BME280;35405;52.344;14.530;2023-12-14T04:05:22;100184.41;;;4.71;88.26
49055;BME280;35405;52.344;14.530;2023-12-14T04:07:47;100174.00;;;4.78;88.71
49055;BME280;35405;52.344;14.530;2023-12-14T04:10:12;100183.53;;;4.70;87.65
49055;BME280;35405;52.344;14.530;2023-12-14T04:12:38;100186.13;;;4.76;88.28
49055;BME280;35405;52.344;14.530;2023-12-14T04:15:04;100189.53;;;4.84;88.62
49055;BME280;35405;52.344;14.530;2023-12-14T04:17:30;100186.09;;;4.87;87.92
49055;BME280;35405;52.344;14.530;2023-12-14T04:19:56;100189.56;;;4.78;88.28
49055;BME280;35405;52.344;14.530;2023-12-14T04:22:21;100195.63;;;4.80;88.43
49055;BME280;35405;52.344;14.530;2023-12-14T04:24:46;100203.38;;;4.77;87.91
49055;BME280;35405;52.344;14.530;2023-12-14T04:27:12;100210.31;;;4.81;88.46
49055;BME280;35405;52.344;14.530;2023-12-14T04:29:37;100214.63;;;4.70;87.87
49055;BME280;35405;52.344;14.530;2023-12-14T04:32:02;100214.63;;;4.70;88.50
49055;BME280;35405;52.344;14.530;2023-12-14T04:34:27;100211.19;;;4.68;88.28
49055;BME280;35405;52.344;14.530;2023-12-14T04:36:53;100214.66;;;4.64;88.62
49055;BME280;35405;52.344;14.530;2023-12-14T04:39:22;100218.13;;;4.58;88.29
49055;BME280;35405;52.344;14.530;2023-12-14T04:41:47;100220.72;;;4.60;88.69
49055;BME280;35405;52.344;14.530;2023-12-14T04:44:13;100225.03;;;4.59;88.30
49055;BME280;35405;52.344;14.530;2023-12-14T04:46:38;100238.84;;;4.67;88.34
49055;BME280;35405;52.344;14.530;2023-12-14T04:49:03;100236.25;;;4.60;88.25
49055;BME280;35405;52.344;14.530;2023-12-14T04:51:28;100233.66;;;4.69;88.24
49055;BME280;35405;52.344;14.530;2023-12-14T04:53:54;100241.44;;;4.67;88.16
49055;BME280;35405;52.344;14.530;2023-12-14T04:56:19;100244.88;;;4.57;88.83
49055;BME280;35405;52.344;14.530;2023-12-14T04:58:44;100244.88;;;4.66;88.49
49055;BME280;35405;52.344;14.530;2023-12-14T05:01:09;100250.94;;;4.67;88.32
49055;BME280;35405;52.344;14.530;2023-12-14T05:03:36;100257.84;;;4.66;88.19
49055;BME280;35405;52.344;14.530;2023-12-14T05:06:02;100265.59;;;4.71;88.49
49055;BME280;35405;52.344;14.530;2023-12-14T05:08:27;100269.03;;;4.85;88.06
49055;BME280;35405;52.344;14.530;2023-12-14T05:10:53;100274.22;;;4.76;87.83
49055;BME280;35405;52.344;14.530;2023-12-14T05:13:18;100272.50;;;4.87;88.02
49055;BME280;35405;52.344;14.530;2023-12-14T05:15:43;100280.25;;;4.92;87.60
49055;BME280;35405;52.344;14.530;2023-12-14T05:18:08;100291.50;;;4.79;87.67
49055;BME280;35405;52.344;14.530;2023-12-14T05:20:34;100293.25;;;4.75;87.86
49055;BME280;35405;52.344;14.530;2023-12-14T05:23:00;100293.22;;;4.72;88.76
49055;BME280;35405;52.344;14.530;2023-12-14T05:25:25;100303.59;;;4.84;87.84
49055;BME280;35405;52.344;14.530;2023-12-14T05:27:51;100305.31;;;4.76;88.16
49055;BME280;35405;52.344;14.530;2023-12-14T05:30:16;100307.94;;;4.61;88.44
49055;BME280;35405;52.344;14.530;2023-12-14T05:32:42;100307.06;;;4.54;88.43
49055;BME280;35405;52.344;14.530;2023-12-14T05:35:08;100311.41;;;4.60;89.03
49055;BME280;35405;52.344;14.530;2023-12-14T05:37:34;100320.00;;;4.65;88.64
49055;BME280;35405;52.344;14.530;2023-12-14T05:39:59;100326.09;;;4.59;88.01
49055;BME280;35405;52.344;14.530;2023-12-14T05:42:25;100338.19;;;4.59;88.80
49055;BME280;35405;52.344;14.530;2023-12-14T05:44:50;100339.91;;;4.66;88.74
49055;BME280;35405;52.344;14.530;2023-12-14T05:47:15;100336.44;;;4.76;87.99
49055;BME280;35405;52.344;14.530;2023-12-14T05:49:41;100344.19;;;4.72;88.07
49055;BME280;35405;52.344;14.530;2023-12-14T05:52:07;100347.66;;;4.69;87.92
49055;BME280;35405;52.344;14.530;2023-12-14T05:54:32;100355.41;;;4.72;88.58
49055;BME280;35405;52.344;14.530;2023-12-14T05:56:58;100358.03;;;4.54;87.78
49055;BME280;35405;52.344;14.530;2023-12-14T05:59:23;100355.44;;;4.38;88.35
49055;BME280;35405;52.344;14.530;2023-12-14T06:01:48;100360.59;;;4.32;88.82
49055;BME280;35405;52.344;14.530;2023-12-14T06:04:14;100369.22;;;4.34;88.91
49055;BME280;35405;52.344;14.530;2023-12-14T06:06:39;100371.84;;;4.39;89.06
49055;BME280;35405;52.344;14.530;2023-12-14T06:09:04;100373.53;;;4.35;89.11
49055;BME280;35405;52.344;14.530;2023-12-14T06:11:32;100370.97;;;4.40;88.74
49055;BME280;35405;52.344;14.530;2023-12-14T06:13:57;100370.97;;;4.38;88.46
49055;BME280;35405;52.344;14.530;2023-12-14T06:16:24;100383.03;;;4.33;88.13
49055;BME280;35405;52.344;14.530;2023-12-14T06:18:50;100391.66;;;4.29;88.68
49055;BME280;35405;52.344;14.530;2023-12-14T06:21:15;100390.81;;;4.35;88.51
49055;BME280;35405;52.344;14.530;2023-12-14T06:23:41;100394.22;;;4.22;88.42
49055;BME280;35405;52.344;14.530;2023-12-14T06:26:06;100405.47;;;4.25;89.20
49055;BME280;35405;52.344;14.530;2023-12-14T06:28:31;100406.31;;;4.17;88.98
49055;BME280;35405;52.344;14.530;2023-12-14T06:30:56;100406.28;;;4.10;88.70
49055;BME280;35405;52.344;14.530;2023-12-14T06:33:22;100410.56;;;3.98;88.17
49055;BME280;35405;52.344;14.530;2023-12-14T06:35:47;100418.31;;;3.99;89.20
49055;BME280;35405;52.344;14.530;2023-12-14T06:38:12;100420.84;;;3.85;88.70
49055;BME280;35405;52.344;14.530;2023-12-14T06:40:38;100413.97;;;3.81;88.96
49055;BME280;35405;52.344;14.530;2023-12-14T06:43:06;100431.22;;;3.82;89.31
49055;BME280;35405;52.344;14.530;2023-12-14T06:45:31;100438.91;;;3.72;88.87
49055;BME280;35405;52.344;14.530;2023-12-14T06:47:56;100432.03;;;3.78;89.34
49055;BME280;35405;52.344;14.530;2023-12-14T06:50:22;100442.38;;;3.74;88.93
49055;BME280;35405;52.344;14.530;2023-12-14T06:52:47;100447.53;;;3.71;88.86
49055;BME280;35405;52.344;14.530;2023-12-14T06:55:12;100451.84;;;3.73;89.03
49055;BME280;35405;52.344;14.530;2023-12-14T06:57:39;100458.78;;;3.77;89.17
49055;BME280;35405;52.344;14.530;2023-12-14T07:00:05;100459.63;;;3.76;88.79
49055;BME280;35405;52.344;14.530;2023-12-14T07:02:30;100466.53;;;3.77;88.88
49055;BME280;35405;52.344;14.530;2023-12-14T07:04:55;100470.84;;;3.77;88.70
49055;BME280;35405;52.344;14.530;2023-12-14T07:07:20;100476.03;;;3.78;89.05
49055;BME280;35405;52.344;14.530;2023-12-14T07:09:46;100488.16;;;3.87;89.00
49055;BME280;35405;52.344;14.530;2023-12-14T07:12:11;100489.91;;;3.88;88.95
49055;BME280;35405;52.344;14.530;2023-12-14T07:14:36;100482.13;;;3.91;88.33
49055;BME280;35405;52.344;14.530;2023-12-14T07:17:02;100482.97;;;3.84;88.63
49055;BME280;35405;52.344;14.530;2023-12-14T07:19:27;100488.97;;;3.78;88.19
49055;BME280;35405;52.344;14.530;2023-12-14T07:21:52;100501.03;;;3.75;88.57
49055;BME280;35405;52.344;14.530;2023-12-14T07:24:17;100498.41;;;3.70;88.46
49055;BME280;35405;52.344;14.530;2023-12-14T07:26:42;100496.72;;;3.78;88.78
49055;BME280;35405;52.344;14.530;2023-12-14T07:29:08;100505.34;;;3.80;89.00
49055;BME280;35405;52.344;14.530;2023-12-14T07:31:33;100507.94;;;3.77;88.54
49055;BME280;35405;52.344;14.530;2023-12-14T07:33:59;100509.56;;;3.66;88.37
49055;BME280;35405;52.344;14.530;2023-12-14T07:36:24;100523.47;;;3.80;89.39
49055;BME280;35405;52.344;14.530;2023-12-14T07:38:49;100529.50;;;3.75;88.40
49055;BME280;35405;52.344;14.530;2023-12-14T07:41:14;100528.59;;;3.67;87.92
49055;BME280;35405;52.344;14.530;2023-12-14T07:43:40;100525.09;;;3.62;88.34
49055;BME280;35405;52.344;14.530;2023-12-14T07:46:05;100535.50;;;3.69;88.25
49055;BME280;35405;52.344;14.530;2023-12-14T07:48:30;100544.13;;;3.73;88.06
49055;BME280;35405;52.344;14.530;2023-12-14T07:50:56;100539.75;;;3.61;88.04
49055;BME280;35405;52.344;14.530;2023-12-14T07:53:21;100543.22;;;3.65;88.35
49055;BME280;35405;52.344;14.530;2023-12-14T07:55:46;100541.44;;;3.56;88.01
49055;BME280;35405;52.344;14.530;2023-12-14T07:58:11;100550.16;;;3.67;88.39
49055;BME280;35405;52.344;14.530;2023-12-14T08:00:38;100556.19;;;3.69;88.63
49055;BME280;35405;52.344;14.530;2023-12-14T08:03:03;100570.84;;;3.70;88.09
49055;BME280;35405;52.344;14.530;2023-12-14T08:05:28;100572.63;;;3.80;88.45
49055;BME280;35405;52.344;14.530;2023-12-14T08:07:54;100577.81;;;3.77;88.23
49055;BME280;35405;52.344;14.530;2023-12-14T08:10:19;100592.38;;;3.66;88.28
49055;BME280;35405;52.344;14.530;2023-12-14T08:12:44;100597.53;;;3.60;88.58
49055;BME280;35405;52.344;14.530;2023-12-14T08:15:10;100603.56;;;3.61;88.53
49055;BME280;35405;52.344;14.530;2023-12-14T08:17:35;100606.09;;;3.56;88.83
49055;BME280;35405;52.344;14.530;2023-12-14T08:20:00;100612.25;;;3.69;88.62
49055;BME280;35405;52.344;14.530;2023-12-14T08:22:25;100618.25;;;3.66;88.00
49055;BME280;35405;52.344;14.530;2023-12-14T08:24:51;100618.34;;;3.80;88.70
49055;BME280;35405;52.344;14.530;2023-12-14T08:27:16;100623.50;;;3.77;87.90
49055;BME280;35405;52.344;14.530;2023-12-14T08:29:41;100626.97;;;3.77;88.34
49055;BME280;35405;52.344;14.530;2023-12-14T08:32:06;100638.34;;;3.98;88.56
49055;BME280;35405;52.344;14.530;2023-12-14T08:34:32;100627.16;;;4.03;87.67
49055;BME280;35405;52.344;14.530;2023-12-14T08:36:57;100634.13;;;4.12;87.74
49055;BME280;35405;52.344;14.530;2023-12-14T08:39:22;100640.25;;;4.25;88.43
49055;BME280;35405;52.344;14.530;2023-12-14T08:41:47;100647.97;;;4.19;87.37
49055;BME280;35405;52.344;14.530;2023-12-14T08:44:14;100640.25;;;4.29;88.06
49055;BME280;35405;52.344;14.530;2023-12-14T08:46:43;100656.78;;;4.45;87.37
49055;BME280;35405;52.344;14.530;2023-12-14T08:49:08;100653.34;;;4.51;86.80
49055;BME280;35405;52.344;14.530;2023-12-14T08:51:34;100664.63;;;4.62;86.59
49055;BME280;35405;52.344;14.530;2023-12-14T08:53:59;100667.22;;;4.63;86.81
49055;BME280;35405;52.344;14.530;2023-12-14T08:56:24;100671.56;;;4.66;86.46
49055;BME280;35405;52.344;14.530;2023-12-14T08:58:49;100678.44;;;4.64;86.88
49055;BME280;35405;52.344;14.530;2023-12-14T09:01:21;100677.69;;;4.80;86.83
49055;BME280;35405;52.344;14.530;2023-12-14T09:03:47;100684.53;;;4.66;86.78
49055;BME280;35405;52.344;14.530;2023-12-14T09:06:13;100681.13;;;4.75;86.95
49055;BME280;35405;52.344;14.530;2023-12-14T09:08:39;100678.56;;;4.82;87.03
49055;BME280;35405;52.344;14.530;2023-12-14T09:11:04;100685.47;;;4.82;85.95
49055;BME280;35405;52.344;14.530;2023-12-14T09:13:30;100686.28;;;4.76;86.53
49055;BME280;35405;52.344;14.530;2023-12-14T09:15:55;100683.63;;;4.61;86.27
49055;BME280;35405;52.344;14.530;2023-12-14T09:18:20;100686.22;;;4.62;86.25
49055;BME280;35405;52.344;14.530;2023-12-14T09:20:47;100688.78;;;4.58;87.38
49055;BME280;35405;52.344;14.530;2023-12-14T09:23:14;100706.94;;;4.59;86.97
49055;BME280;35405;52.344;14.530;2023-12-14T09:25:39;100701.78;;;4.61;86.40
49055;BME280;35405;52.344;14.530;2023-12-14T09:28:05;100705.22;;;4.64;86.49
49055;BME280;35405;52.344;14.530;2023-12-14T09:30:30;100715.59;;;4.63;86.93
49055;BME280;35405;52.344;14.530;2023-12-14T09:32:55;100720.78;;;4.60;87.19
49055;BME280;35405;52.344;14.530;2023-12-14T09:35:20;100723.28;;;4.49;86.56
49055;BME280;35405;52.344;14.530;2023-12-14T09:37:45;100725.00;;;4.49;87.57
49055;BME280;35405;52.344;14.530;2023-12-14T09:40:11;100731.91;;;4.47;86.98
49055;BME280;35405;52.344;14.530;2023-12-14T09:42:37;100737.19;;;4.59;87.60
49055;BME280;35405;52.344;14.530;2023-12-14T09:45:04;100740.59;;;4.55;86.98
49055;BME280;35405;52.344;14.530;2023-12-14T09:47:31;100734.56;;;4.57;86.79
49055;BME280;35405;52.344;14.530;2023-12-14T09:49:56;100743.13;;;4.46;86.54
49055;BME280;35405;52.344;14.530;2023-12-14T09:52:23;100750.97;;;4.58;86.67
49055;BME280;35405;52.344;14.530;2023-12-14T09:54:48;100749.28;;;4.60;86.32
49055;BME280;35405;52.344;14.530;2023-12-14T09:57:13;100746.69;;;4.58;86.75
49055;BME280;35405;52.344;14.530;2023-12-14T09:59:39;100748.31;;;4.47;86.92
49055;BME280;35405;52.344;14.530;2023-12-14T10:02:11;100751.75;;;4.45;86.73
49055;BME280;35405;52.344;14.530;2023-12-14T10:04:36;100754.25;;;4.35;86.75
49055;BME280;35405;52.344;14.530;2023-12-14T10:07:02;100760.41;;;4.47;86.85
49055;BME280;35405;52.344;14.530;2023-12-14T10:09:31;100763.88;;;4.49;86.86
49055;BME280;35405;52.344;14.530;2023-12-14T10:12:03;100757.84;;;4.51;87.26
49055;BME280;35405;52.344;14.530;2023-12-14T10:14:30;100761.28;;;4.50;86.66
49055;BME280;35405;52.344;14.530;2023-12-14T10:16:55;100758.81;;;4.70;86.98
49055;BME280;35405;52.344;14.530;2023-12-14T10:19:21;100765.69;;;4.63;86.42
49055;BME280;35405;52.344;14.530;2023-12-14T10:21:46;100758.69;;;4.47;86.10
49055;BME280;35405;52.344;14.530;2023-12-14T10:24:12;100761.22;;;4.43;87.02
49055;BME280;35405;52.344;14.530;2023-12-14T10:26:37;100766.44;;;4.46;87.09
49055;BME280;35405;52.344;14.530;2023-12-14T10:29:03;100768.97;;;4.39;86.91
49055;BME280;35405;52.344;14.530;2023-12-14T10:31:30;100773.31;;;4.40;87.13
49055;BME280;35405;52.344;14.530;2023-12-14T10:33:55;100773.31;;;4.39;86.96
49055;BME280;35405;52.344;14.530;2023-12-14T10:36:24;100770.81;;;4.56;87.22
49055;BME280;35405;52.344;14.530;2023-12-14T10:38:53;100781.25;;;4.65;86.79
49055;BME280;35405;52.344;14.530;2023-12-14T10:41:20;100782.03;;;4.55;86.73
49055;BME280;35405;52.344;14.530;2023-12-14T10:43:46;100789.88;;;4.61;86.25
49055;BME280;35405;52.344;14.530;2023-12-14T10:46:12;100791.59;;;4.63;86.43
49055;BME280;35405;52.344;14.530;2023-12-14T10:48:38;100805.31;;;4.50;86.04
49055;BME280;35405;52.344;14.530;2023-12-14T10:51:09;100806.19;;;4.48;86.29
49055;BME280;35405;52.344;14.530;2023-12-14T10:53:35;100808.59;;;4.29;85.70
49055;BME280;35405;52.344;14.530;2023-12-14T10:56:01;100805.09;;;4.23;86.98
49055;BME280;35405;52.344;14.530;2023-12-14T10:58:44;100810.19;;;4.12;86.74
49055;BME280;35405;52.344;14.530;2023-12-14T11:01:12;100805.00;;;4.15;87.06
49055;BME280;35405;52.344;14.530;2023-12-14T11:03:39;100809.50;;;4.31;86.74
49055;BME280;35405;52.344;14.530;2023-12-14T11:06:15;100822.41;;;4.28;86.48
49055;BME280;35405;52.344;14.530;2023-12-14T11:08:44;100825.03;;;4.31;86.00
49055;BME280;35405;52.344;14.530;2023-12-14T11:11:10;100824.13;;;4.28;86.08
49055;BME280;35405;52.344;14.530;2023-12-14T11:13:37;100827.56;;;4.25;86.45
49055;BME280;35405;52.344;14.530;2023-12-14T11:16:04;100824.94;;;4.21;85.59
49055;BME280;35405;52.344;14.530;2023-12-14T11:18:30;100829.31;;;4.29;86.31
49055;BME280;35405;52.344;14.530;2023-12-14T11:20:59;100837.22;;;4.41;86.68
49055;BME280;35405;52.344;14.530;2023-12-14T11:25:56;100848.59;;;4.59;85.61
49055;BME280;35405;52.344;14.530;2023-12-14T11:28:21;100846.72;;;4.43;85.58
49055;BME280;35405;52.344;14.530;2023-12-14T11:30:47;100847.59;;;4.45;85.75
49055;BME280;35405;52.344;14.530;2023-12-14T11:33:13;100852.69;;;4.35;85.68
49055;BME280;35405;52.344;14.530;2023-12-14T11:35:38;100853.63;;;4.44;85.33
49055;BME280;35405;52.344;14.530;2023-12-14T11:38:04;100855.41;;;4.48;85.63
49055;BME280;35405;52.344;14.530;2023-12-14T11:40:35;100847.56;;;4.43;85.69
49055;BME280;35405;52.344;14.530;2023-12-14T11:43:01;100851.13;;;4.56;85.62
49055;BME280;35405;52.344;14.530;2023-12-14T11:45:27;100855.41;;;4.49;84.86
49055;BME280;35405;52.344;14.530;2023-12-14T11:47:53;100862.38;;;4.55;85.33
49055;BME280;35405;52.344;14.530;2023-12-14T11:50:18;100866.72;;;4.59;85.22
49055;BME280;35405;52.344;14.530;2023-12-14T11:52:43;100869.34;;;4.63;84.98
49055;BME280;35405;52.344;14.530;2023-12-14T11:55:12;100860.75;;;4.67;84.71
49055;BME280;35405;52.344;14.530;2023-12-14T11:57:37;100870.25;;;4.67;84.65
49055;BME280;35405;52.344;14.530;2023-12-14T12:00:04;100873.72;;;4.69;84.10
49055;BME280;35405;52.344;14.530;2023-12-14T12:02:29;100876.25;;;4.64;84.76
49055;BME280;35405;52.344;14.530;2023-12-14T12:04:54;100868.41;;;4.57;83.94
49055;BME280;35405;52.344;14.530;2023-12-14T12:07:20;100872.66;;;4.46;84.93
49055;BME280;35405;52.344;14.530;2023-12-14T12:09:46;100875.31;;;4.55;85.10
49055;BME280;35405;52.344;14.530;2023-12-14T12:12:11;100884.06;;;4.66;84.47
49055;BME280;35405;52.344;14.530;2023-12-14T12:14:37;100878.09;;;4.78;84.08
49055;BME280;35405;52.344;14.530;2023-12-14T12:17:04;100873.72;;;4.72;83.33
49055;BME280;35405;52.344;14.530;2023-12-14T12:19:31;100880.63;;;4.70;83.58
49055;BME280;35405;52.344;14.530;2023-12-14T12:21:56;100882.47;;;4.83;84.54
49055;BME280;35405;52.344;14.530;2023-12-14T12:24:21;100886.03;;;4.94;83.30
49055;BME280;35405;52.344;14.530;2023-12-14T12:26:47;100884.34;;;5.01;83.54
49055;BME280;35405;52.344;14.530;2023-12-14T12:29:12;100882.34;;;4.69;83.53
49055;BME280;35405;52.344;14.530;2023-12-14T12:31:37;100888.44;;;4.75;83.70
49055;BME280;35405;52.344;14.530;2023-12-14T12:34:02;100888.41;;;4.72;83.45
49055;BME280;35405;52.344;14.530;2023-12-14T12:36:28;100894.50;;;4.77;84.53
49055;BME280;35405;52.344;14.530;2023-12-14T12:38:53;100890.13;;;4.71;83.94
49055;BME280;35405;52.344;14.530;2023-12-14T12:41:18;100896.19;;;4.72;83.05
49055;BME280;35405;52.344;14.530;2023-12-14T12:43:43;100894.38;;;4.61;83.82